sensor_id;sensor_type;location;lat;lon;timestamp;P1;durP1;ratioP1;P2;durP2;ratioP2
78290;SDS011;67543;45.494;9.100;2023-06-10T06:40:23;4.93;;;3.83;;
78290;SDS011;67543;45.494;9.100;2023-06-10T06:42:48;4.93;;;3.80;;
78290;SDS011;67543;45.494;9.100;2023-06-10T06:45:14;7.53;;;3.85;;
78290;SDS011;67543;45.494;9.100;2023-06-10T06:47:40;6.68;;;3.65;;
78290;SDS011;67543;45.494;9.100;2023-06-10T06:50:05;5.78;;;3.30;;
78290;SDS011;67543;45.494;9.100;2023-06-10T06:52:31;4.22;;;3.10;;
78290;SDS011;67543;45.494;9.100;2023-06-10T06:54:56;4.43;;;3.47;;
78290;SDS011;67543;45.494;9.100;2023-06-10T06:57:21;5.30;;;2.97;;
78290;SDS011;67543;45.494;9.100;2023-06-10T06:59:48;7.40;;;3.80;;
78290;SDS011;67543;45.494;9.100;2023-06-10T07:02:13;6.03;;;3.55;;
78290;SDS011;67543;45.494;9.100;2023-06-10T07:04:39;6.10;;;3.10;;
78290;SDS011;67543;45.494;9.100;2023-06-10T07:07:07;6.78;;;3.47;;
78290;SDS011;67543;45.494;9.100;2023-06-10T07:09:33;5.88;;;3.90;;
78290;SDS011;67543;45.494;9.100;2023-06-10T07:11:59;6.03;;;3.60;;
78290;SDS011;67543;45.494;9.100;2023-06-10T07:14:24;5.65;;;3.00;;
78290;SDS011;67543;45.494;9.100;2023-06-10T07:16:49;5.70;;;3.53;;
78290;SDS011;67543;45.494;9.100;2023-06-10T07:19:15;5.22;;;3.88;;
78290;SDS011;67543;45.494;9.100;2023-06-10T07:21:40;6.28;;;3.22;;
78290;SDS011;67543;45.494;9.100;2023-06-10T07:24:06;6.05;;;3.38;;
78290;SDS011;67543;45.494;9.100;2023-06-10T07:26:31;6.70;;;3.45;;
78290;SDS011;67543;45.494;9.100;2023-06-10T07:28:56;4.60;;;3.53;;
78290;SDS011;67543;45.494;9.100;2023-06-10T07:31:23;3.75;;;3.20;;
78290;SDS011;67543;45.494;9.100;2023-06-10T07:33:48;5.15;;;2.97;;
78290;SDS011;67543;45.494;9.100;2023-06-10T07:36:13;6.43;;;3.10;;
78290;SDS011;67543;45.494;9.100;2023-06-10T07:38:39;4.57;;;2.92;;
78290;SDS011;67543;45.494;9.100;2023-06-10T07:41:07;4.38;;;3.13;;
78290;SDS011;67543;45.494;9.100;2023-06-10T07:43:32;4.63;;;2.88;;
78290;SDS011;67543;45.494;9.100;2023-06-10T07:45:57;6.35;;;3.22;;
78290;SDS011;67543;45.494;9.100;2023-06-10T07:48:23;4.80;;;3.30;;
78290;SDS011;67543;45.494;9.100;2023-06-10T07:50:48;8.60;;;3.80;;
78290;SDS011;67543;45.494;9.100;2023-06-10T07:53:13;7.82;;;3.28;;
78290;SDS011;67543;45.494;9.100;2023-06-10T07:55:39;10.93;;;3.58;;
78290;SDS011;67543;45.494;9.100;2023-06-10T07:58:04;14.02;;;4.57;;
78290;SDS011;67543;45.494;9.100;2023-06-10T08:00:30;7.28;;;2.83;;
78290;SDS011;67543;45.494;9.100;2023-06-10T08:02:55;5.82;;;3.33;;
78290;SDS011;67543;45.494;9.100;2023-06-10T08:05:21;5.32;;;3.67;;
78290;SDS011;67543;45.494;9.100;2023-06-10T08:07:46;4.80;;;3.25;;
78290;SDS011;67543;45.494;9.100;2023-06-10T08:10:12;6.38;;;3.33;;
78290;SDS011;67543;45.494;9.100;2023-06-10T08:12:37;6.70;;;3.65;;
78290;SDS011;67543;45.494;9.100;2023-06-10T08:15:03;4.78;;;3.10;;
78290;SDS011;67543;45.494;9.100;2023-06-10T08:17:29;6.05;;;3.53;;
78290;SDS011;67543;45.494;9.100;2023-06-10T08:19:55;5.35;;;3.00;;
78290;SDS011;67543;45.494;9.100;2023-06-10T08:22:20;6.63;;;3.20;;
78290;SDS011;67543;45.494;9.100;2023-06-10T08:24:46;8.73;;;3.88;;
78290;SDS011;67543;45.494;9.100;2023-06-10T08:27:11;6.18;;;3.78;;
78290;SDS011;67543;45.494;9.100;2023-06-10T08:29:37;5.53;;;4.05;;
78290;SDS011;67543;45.494;9.100;2023-06-10T08:32:02;7.38;;;4.50;;
78290;SDS011;67543;45.494;9.100;2023-06-10T08:34:28;8.32;;;4.40;;
78290;SDS011;67543;45.494;9.100;2023-06-10T08:36:53;6.13;;;3.92;;
78290;SDS011;67543;45.494;9.100;2023-06-10T08:39:20;6.57;;;3.95;;
78290;SDS011;67543;45.494;9.100;2023-06-10T08:41:51;6.60;;;4.32;;
78290;SDS011;67543;45.494;9.100;2023-06-10T08:44:48;6.65;;;3.72;;
78290;SDS011;67543;45.494;9.100;2023-06-10T08:47:18;8.48;;;3.95;;
78290;SDS011;67543;45.494;9.100;2023-06-10T08:49:47;6.55;;;4.68;;
78290;SDS011;67543;45.494;9.100;2023-06-10T08:52:21;8.35;;;5.55;;
78290;SDS011;67543;45.494;9.100;2023-06-10T08:54:54;8.00;;;4.40;;
78290;SDS011;67543;45.494;9.100;2023-06-10T08:57:22;8.68;;;4.20;;
78290;SDS011;67543;45.494;9.100;2023-06-10T08:59:48;6.75;;;3.90;;
78290;SDS011;67543;45.494;9.100;2023-06-10T09:02:14;7.28;;;3.67;;
78290;SDS011;67543;45.494;9.100;2023-06-10T09:04:43;7.28;;;4.15;;
78290;SDS011;67543;45.494;9.100;2023-06-10T09:07:10;5.18;;;4.07;;
78290;SDS011;67543;45.494;9.100;2023-06-10T09:09:36;5.30;;;3.00;;
78290;SDS011;67543;45.494;9.100;2023-06-10T09:12:04;4.85;;;3.47;;
78290;SDS011;67543;45.494;9.100;2023-06-10T09:14:32;7.78;;;4.05;;
78290;SDS011;67543;45.494;9.100;2023-06-10T09:17:01;8.43;;;3.88;;
78290;SDS011;67543;45.494;9.100;2023-06-10T09:19:27;7.25;;;3.60;;
78290;SDS011;67543;45.494;9.100;2023-06-10T09:21:56;8.63;;;4.22;;
78290;SDS011;67543;45.494;9.100;2023-06-10T09:24:26;8.70;;;3.70;;
78290;SDS011;67543;45.494;9.100;2023-06-10T09:27:07;7.80;;;3.50;;
78290;SDS011;67543;45.494;9.100;2023-06-10T09:29:46;7.00;;;3.88;;
78290;SDS011;67543;45.494;9.100;2023-06-10T09:32:22;10.93;;;3.88;;
78290;SDS011;67543;45.494;9.100;2023-06-10T09:34:48;4.95;;;3.80;;
78290;SDS011;67543;45.494;9.100;2023-06-10T09:39:52;5.38;;;3.53;;
78290;SDS011;67543;45.494;9.100;2023-06-10T09:42:32;7.93;;;3.47;;
78290;SDS011;67543;45.494;9.100;2023-06-10T09:44:59;7.50;;;3.38;;
78290;SDS011;67543;45.494;9.100;2023-06-10T09:47:25;7.88;;;3.40;;
78290;SDS011;67543;45.494;9.100;2023-06-10T09:49:50;7.22;;;3.58;;
78290;SDS011;67543;45.494;9.100;2023-06-10T09:52:25;5.55;;;3.30;;
78290;SDS011;67543;45.494;9.100;2023-06-10T09:54:51;8.75;;;4.07;;
78290;SDS011;67543;45.494;9.100;2023-06-10T09:57:17;6.57;;;3.30;;
78290;SDS011;67543;45.494;9.100;2023-06-10T09:59:44;5.85;;;3.40;;
78290;SDS011;67543;45.494;9.100;2023-06-10T10:02:16;5.10;;;3.53;;
78290;SDS011;67543;45.494;9.100;2023-06-10T10:04:42;7.78;;;3.75;;
78290;SDS011;67543;45.494;9.100;2023-06-10T10:07:11;6.30;;;3.40;;
78290;SDS011;67543;45.494;9.100;2023-06-10T10:09:37;6.40;;;4.03;;
78290;SDS011;67543;45.494;9.100;2023-06-10T10:12:07;7.68;;;4.45;;
78290;SDS011;67543;45.494;9.100;2023-06-10T10:14:35;7.30;;;4.07;;
78290;SDS011;67543;45.494;9.100;2023-06-10T10:17:07;9.15;;;4.50;;
78290;SDS011;67543;45.494;9.100;2023-06-10T10:19:41;7.93;;;4.95;;
78290;SDS011;67543;45.494;9.100;2023-06-10T10:22:22;6.07;;;4.20;;
78290;SDS011;67543;45.494;9.100;2023-06-10T10:24:55;6.72;;;4.55;;
78290;SDS011;67543;45.494;9.100;2023-06-10T10:27:27;7.28;;;3.88;;
78290;SDS011;67543;45.494;9.100;2023-06-10T10:29:54;7.15;;;4.13;;
78290;SDS011;67543;45.494;9.100;2023-06-10T10:32:26;8.07;;;4.90;;
78290;SDS011;67543;45.494;9.100;2023-06-10T10:35:17;7.97;;;4.30;;
78290;SDS011;67543;45.494;9.100;2023-06-10T10:37:51;6.88;;;3.78;;
78290;SDS011;67543;45.494;9.100;2023-06-10T10:40:18;7.03;;;4.45;;
78290;SDS011;67543;45.494;9.100;2023-06-10T10:42:49;9.07;;;4.30;;
78290;SDS011;67543;45.494;9.100;2023-06-10T10:45:15;5.97;;;4.05;;
78290;SDS011;67543;45.494;9.100;2023-06-10T10:47:42;7.68;;;3.92;;
78290;SDS011;67543;45.494;9.100;2023-06-10T10:50:16;5.60;;;3.13;;
78290;SDS011;67543;45.494;9.100;2023-06-10T10:52:51;8.38;;;4.03;;
78290;SDS011;67543;45.494;9.100;2023-06-10T10:55:20;6.75;;;4.57;;
78290;SDS011;67543;45.494;9.100;2023-06-10T10:57:53;5.78;;;4.30;;
78290;SDS011;67543;45.494;9.100;2023-06-10T11:03:15;6.95;;;3.88;;
78290;SDS011;67543;45.494;9.100;2023-06-10T11:05:46;5.40;;;3.55;;
78290;SDS011;67543;45.494;9.100;2023-06-10T11:08:15;9.52;;;4.55;;
78290;SDS011;67543;45.494;9.100;2023-06-10T11:10:41;4.32;;;3.90;;
78290;SDS011;67543;45.494;9.100;2023-06-10T11:13:18;4.40;;;3.55;;
78290;SDS011;67543;45.494;9.100;2023-06-10T11:15:49;6.28;;;3.38;;
78290;SDS011;67543;45.494;9.100;2023-06-10T11:18:25;3.60;;;3.30;;
78290;SDS011;67543;45.494;9.100;2023-06-10T11:20:55;5.78;;;4.00;;
78290;SDS011;67543;45.494;9.100;2023-06-10T11:31:25;6.07;;;4.45;;
78290;SDS011;67543;45.494;9.100;2023-06-10T11:33:58;4.57;;;3.75;;
78290;SDS011;67543;45.494;9.100;2023-06-10T11:36:26;4.88;;;3.55;;
78290;SDS011;67543;45.494;9.100;2023-06-10T11:38:53;6.07;;;4.85;;
78290;SDS011;67543;45.494;9.100;2023-06-10T11:41:22;8.13;;;6.07;;
78290;SDS011;67543;45.494;9.100;2023-06-10T11:46:19;7.72;;;6.93;;
78290;SDS011;67543;45.494;9.100;2023-06-10T11:48:54;9.20;;;8.15;;
78290;SDS011;67543;45.494;9.100;2023-06-10T11:51:20;8.73;;;7.82;;
78290;SDS011;67543;45.494;9.100;2023-06-10T11:53:49;8.50;;;7.60;;
78290;SDS011;67543;45.494;9.100;2023-06-10T11:56:22;10.02;;;7.68;;
78290;SDS011;67543;45.494;9.100;2023-06-10T12:01:43;11.70;;;8.73;;
78290;SDS011;67543;45.494;9.100;2023-06-10T12:04:11;10.48;;;8.73;;
78290;SDS011;67543;45.494;9.100;2023-06-10T12:09:05;11.65;;;9.30;;
78290;SDS011;67543;45.494;9.100;2023-06-10T12:11:31;9.48;;;8.55;;
78290;SDS011;67543;45.494;9.100;2023-06-10T12:13:56;9.52;;;8.27;;
78290;SDS011;67543;45.494;9.100;2023-06-10T12:16:22;10.50;;;8.13;;
78290;SDS011;67543;45.494;9.100;2023-06-10T12:18:47;9.60;;;8.70;;
78290;SDS011;67543;45.494;9.100;2023-06-10T12:21:17;9.63;;;8.38;;
78290;SDS011;67543;45.494;9.100;2023-06-10T12:26:46;13.90;;;9.45;;
78290;SDS011;67543;45.494;9.100;2023-06-10T12:29:15;9.65;;;8.75;;
78290;SDS011;67543;45.494;9.100;2023-06-10T12:32:18;13.55;;;9.45;;
78290;SDS011;67543;45.494;9.100;2023-06-10T12:34:40;10.23;;;9.13;;
78290;SDS011;67543;45.494;9.100;2023-06-10T12:37:17;10.30;;;9.27;;
78290;SDS011;67543;45.494;9.100;2023-06-10T12:39:50;10.18;;;8.60;;
78290;SDS011;67543;45.494;9.100;2023-06-10T12:42:21;10.73;;;9.63;;
78290;SDS011;67543;45.494;9.100;2023-06-10T12:44:52;10.98;;;9.82;;
78290;SDS011;67543;45.494;9.100;2023-06-10T12:47:19;10.00;;;8.98;;
78290;SDS011;67543;45.494;9.100;2023-06-10T12:49:45;9.57;;;8.40;;
78290;SDS011;67543;45.494;9.100;2023-06-10T12:52:16;10.45;;;8.82;;
78290;SDS011;67543;45.494;9.100;2023-06-10T12:54:42;11.40;;;9.35;;
78290;SDS011;67543;45.494;9.100;2023-06-10T12:57:08;10.85;;;9.82;;
78290;SDS011;67543;45.494;9.100;2023-06-10T12:59:38;10.10;;;8.93;;
78290;SDS011;67543;45.494;9.100;2023-06-10T13:02:09;11.57;;;9.23;;
78290;SDS011;67543;45.494;9.100;2023-06-10T13:04:39;12.57;;;9.70;;
78290;SDS011;67543;45.494;9.100;2023-06-10T13:07:07;9.18;;;8.07;;
78290;SDS011;67543;45.494;9.100;2023-06-10T13:09:36;10.27;;;9.20;;
78290;SDS011;67543;45.494;9.100;2023-06-10T13:12:06;11.32;;;9.57;;
78290;SDS011;67543;45.494;9.100;2023-06-10T13:14:35;10.30;;;9.30;;
78290;SDS011;67543;45.494;9.100;2023-06-10T13:17:04;10.82;;;9.63;;
78290;SDS011;67543;45.494;9.100;2023-06-10T13:19:31;10.95;;;9.43;;
78290;SDS011;67543;45.494;9.100;2023-06-10T13:21:58;10.90;;;9.80;;
78290;SDS011;67543;45.494;9.100;2023-06-10T13:24:23;10.57;;;8.45;;
78290;SDS011;67543;45.494;9.100;2023-06-10T13:26:49;9.27;;;8.38;;
78290;SDS011;67543;45.494;9.100;2023-06-10T13:29:15;8.90;;;8.10;;
78290;SDS011;67543;45.494;9.100;2023-06-10T13:31:41;9.07;;;8.27;;
78290;SDS011;67543;45.494;9.100;2023-06-10T13:34:07;10.00;;;8.45;;
78290;SDS011;67543;45.494;9.100;2023-06-10T13:36:35;9.52;;;8.57;;
78290;SDS011;67543;45.494;9.100;2023-06-10T13:39:04;9.45;;;8.55;;
78290;SDS011;67543;45.494;9.100;2023-06-10T13:41:29;9.35;;;8.45;;
78290;SDS011;67543;45.494;9.100;2023-06-10T13:43:55;9.80;;;8.48;;
78290;SDS011;67543;45.494;9.100;2023-06-10T13:46:21;10.40;;;9.18;;
78290;SDS011;67543;45.494;9.100;2023-06-10T13:48:47;9.43;;;8.07;;
78290;SDS011;67543;45.494;9.100;2023-06-10T13:51:12;9.70;;;7.75;;
78290;SDS011;67543;45.494;9.100;2023-06-10T13:53:38;7.78;;;7.00;;
78290;SDS011;67543;45.494;9.100;2023-06-10T13:56:03;8.93;;;7.53;;
78290;SDS011;67543;45.494;9.100;2023-06-10T13:58:30;9.38;;;7.40;;
78290;SDS011;67543;45.494;9.100;2023-06-10T14:00:55;9.32;;;7.68;;
78290;SDS011;67543;45.494;9.100;2023-06-10T14:03:21;8.73;;;7.82;;
78290;SDS011;67543;45.494;9.100;2023-06-10T14:05:46;7.03;;;6.30;;
78290;SDS011;67543;45.494;9.100;2023-06-10T14:08:12;7.07;;;6.38;;
78290;SDS011;67543;45.494;9.100;2023-06-10T14:10:39;7.95;;;6.97;;
78290;SDS011;67543;45.494;9.100;2023-06-10T14:13:05;9.52;;;6.88;;
78290;SDS011;67543;45.494;9.100;2023-06-10T14:15:31;8.20;;;6.55;;
78290;SDS011;67543;45.494;9.100;2023-06-10T14:17:57;7.05;;;6.35;;
78290;SDS011;67543;45.494;9.100;2023-06-10T14:20:22;7.30;;;6.60;;
78290;SDS011;67543;45.494;9.100;2023-06-10T14:22:50;7.47;;;6.35;;
78290;SDS011;67543;45.494;9.100;2023-06-10T14:25:15;6.43;;;5.82;;
78290;SDS011;67543;45.494;9.100;2023-06-10T14:27:41;8.65;;;6.00;;
78290;SDS011;67543;45.494;9.100;2023-06-10T14:30:08;11.05;;;6.38;;
78290;SDS011;67543;45.494;9.100;2023-06-10T14:32:34;8.55;;;6.20;;
78290;SDS011;67543;45.494;9.100;2023-06-10T14:34:59;8.90;;;6.10;;
78290;SDS011;67543;45.494;9.100;2023-06-10T14:37:25;7.70;;;6.45;;
78290;SDS011;67543;45.494;9.100;2023-06-10T14:39:50;9.88;;;5.80;;
78290;SDS011;67543;45.494;9.100;2023-06-10T14:42:16;8.50;;;6.20;;
78290;SDS011;67543;45.494;9.100;2023-06-10T14:44:41;10.13;;;6.78;;
78290;SDS011;67543;45.494;9.100;2023-06-10T14:47:07;7.90;;;6.10;;
78290;SDS011;67543;45.494;9.100;2023-06-10T14:49:32;7.18;;;6.32;;
78290;SDS011;67543;45.494;9.100;2023-06-10T14:51:57;6.90;;;6.25;;
78290;SDS011;67543;45.494;9.100;2023-06-10T14:54:23;9.40;;;6.25;;
78290;SDS011;67543;45.494;9.100;2023-06-10T14:56:48;9.52;;;6.82;;
78290;SDS011;67543;45.494;9.100;2023-06-10T14:59:13;11.00;;;6.13;;
78290;SDS011;67543;45.494;9.100;2023-06-10T15:01:39;7.95;;;5.20;;
78290;SDS011;67543;45.494;9.100;2023-06-10T15:04:04;7.85;;;5.50;;
78290;SDS011;67543;45.494;9.100;2023-06-10T15:06:30;7.22;;;5.95;;
78290;SDS011;67543;45.494;9.100;2023-06-10T15:08:55;8.63;;;6.05;;
78290;SDS011;67543;45.494;9.100;2023-06-10T15:11:20;7.32;;;5.50;;
78290;SDS011;67543;45.494;9.100;2023-06-10T15:13:47;5.65;;;4.72;;
78290;SDS011;67543;45.494;9.100;2023-06-10T15:16:12;5.65;;;5.05;;
78290;SDS011;67543;45.494;9.100;2023-06-10T15:18:37;6.40;;;5.80;;
78290;SDS011;67543;45.494;9.100;2023-06-10T15:21:03;8.80;;;5.60;;
78290;SDS011;67543;45.494;9.100;2023-06-10T15:23:28;7.20;;;5.47;;
78290;SDS011;67543;45.494;9.100;2023-06-10T15:25:53;7.60;;;4.88;;
78290;SDS011;67543;45.494;9.100;2023-06-10T15:28:19;8.05;;;4.97;;
78290;SDS011;67543;45.494;9.100;2023-06-10T15:30:44;6.35;;;5.30;;
78290;SDS011;67543;45.494;9.100;2023-06-10T15:33:10;6.38;;;5.05;;
78290;SDS011;67543;45.494;9.100;2023-06-10T15:35:35;6.28;;;4.38;;
78290;SDS011;67543;45.494;9.100;2023-06-10T15:38:00;11.50;;;9.20;;
78290;SDS011;67543;45.494;9.100;2023-06-10T15:40:26;10.05;;;6.65;;
78290;SDS011;67543;45.494;9.100;2023-06-10T15:42:51;7.65;;;5.20;;
78290;SDS011;67543;45.494;9.100;2023-06-10T15:45:17;6.28;;;5.43;;
78290;SDS011;67543;45.494;9.100;2023-06-10T15:47:42;5.95;;;4.43;;
78290;SDS011;67543;45.494;9.100;2023-06-10T15:50:08;7.95;;;4.68;;
78290;SDS011;67543;45.494;9.100;2023-06-10T15:52:34;5.70;;;4.40;;
78290;SDS011;67543;45.494;9.100;2023-06-10T15:54:59;6.18;;;4.15;;
78290;SDS011;67543;45.494;9.100;2023-06-10T15:57:25;7.32;;;4.10;;
78290;SDS011;67543;45.494;9.100;2023-06-10T15:59:50;4.57;;;3.75;;
78290;SDS011;67543;45.494;9.100;2023-06-10T16:02:15;4.85;;;4.35;;
78290;SDS011;67543;45.494;9.100;2023-06-10T16:04:41;6.10;;;4.45;;
78290;SDS011;67543;45.494;9.100;2023-06-10T16:07:06;6.15;;;4.40;;
78290;SDS011;67543;45.494;9.100;2023-06-10T16:09:31;6.50;;;4.63;;
78290;SDS011;67543;45.494;9.100;2023-06-10T16:11:57;7.07;;;4.78;;
78290;SDS011;67543;45.494;9.100;2023-06-10T16:14:22;5.30;;;3.47;;
78290;SDS011;67543;45.494;9.100;2023-06-10T16:16:47;5.25;;;4.70;;
78290;SDS011;67543;45.494;9.100;2023-06-10T16:19:13;4.97;;;4.47;;
78290;SDS011;67543;45.494;9.100;2023-06-10T16:21:38;4.95;;;3.78;;
78290;SDS011;67543;45.494;9.100;2023-06-10T16:24:05;4.38;;;3.92;;
78290;SDS011;67543;45.494;9.100;2023-06-10T16:26:32;5.90;;;4.40;;
78290;SDS011;67543;45.494;9.100;2023-06-10T16:28:57;5.85;;;4.10;;
78290;SDS011;67543;45.494;9.100;2023-06-10T16:31:22;7.15;;;4.30;;
78290;SDS011;67543;45.494;9.100;2023-06-10T16:33:49;5.38;;;4.35;;
78290;SDS011;67543;45.494;9.100;2023-06-10T16:36:14;8.30;;;4.75;;
78290;SDS011;67543;45.494;9.100;2023-06-10T16:38:40;5.97;;;4.05;;
78290;SDS011;67543;45.494;9.100;2023-06-10T16:41:05;5.00;;;3.90;;
78290;SDS011;67543;45.494;9.100;2023-06-10T16:46:02;8.00;;;4.70;;
78290;SDS011;67543;45.494;9.100;2023-06-10T16:48:29;6.90;;;4.65;;
78290;SDS011;67543;45.494;9.100;2023-06-10T16:50:55;8.30;;;4.80;;
78290;SDS011;67543;45.494;9.100;2023-06-10T16:53:20;8.30;;;4.32;;
78290;SDS011;67543;45.494;9.100;2023-06-10T16:55:46;4.40;;;3.90;;
78290;SDS011;67543;45.494;9.100;2023-06-10T16:58:11;8.13;;;4.80;;
78290;SDS011;67543;45.494;9.100;2023-06-10T17:00:36;7.65;;;4.72;;
78290;SDS011;67543;45.494;9.100;2023-06-10T17:03:05;5.43;;;4.72;;
78290;SDS011;67543;45.494;9.100;2023-06-10T17:05:33;7.03;;;5.35;;
78290;SDS011;67543;45.494;9.100;2023-06-10T17:07:58;5.10;;;3.95;;
78290;SDS011;67543;45.494;9.100;2023-06-10T17:10:23;10.50;;;4.43;;
78290;SDS011;67543;45.494;9.100;2023-06-10T17:12:49;5.90;;;5.10;;
78290;SDS011;67543;45.494;9.100;2023-06-10T17:15:17;5.13;;;4.10;;
78290;SDS011;67543;45.494;9.100;2023-06-10T17:17:42;5.55;;;4.50;;
78290;SDS011;67543;45.494;9.100;2023-06-10T17:20:08;7.78;;;4.70;;
78290;SDS011;67543;45.494;9.100;2023-06-10T17:22:33;4.68;;;3.90;;
78290;SDS011;67543;45.494;9.100;2023-06-10T17:24:59;6.60;;;4.63;;
78290;SDS011;67543;45.494;9.100;2023-06-10T17:27:24;6.65;;;4.82;;
78290;SDS011;67543;45.494;9.100;2023-06-10T17:29:50;5.30;;;3.58;;
78290;SDS011;67543;45.494;9.100;2023-06-10T17:32:15;8.38;;;4.45;;
78290;SDS011;67543;45.494;9.100;2023-06-10T17:34:42;5.78;;;3.97;;
78290;SDS011;67543;45.494;9.100;2023-06-10T17:37:07;4.57;;;3.78;;
78290;SDS011;67543;45.494;9.100;2023-06-10T17:39:32;7.50;;;4.18;;
78290;SDS011;67543;45.494;9.100;2023-06-10T17:41:58;5.53;;;3.58;;
78290;SDS011;67543;45.494;9.100;2023-06-10T17:44:23;4.65;;;4.13;;
78290;SDS011;67543;45.494;9.100;2023-06-10T17:46:52;7.10;;;4.30;;
78290;SDS011;67543;45.494;9.100;2023-06-10T17:49:19;5.25;;;3.83;;
78290;SDS011;67543;45.494;9.100;2023-06-10T17:51:47;6.80;;;4.13;;
78290;SDS011;67543;45.494;9.100;2023-06-10T17:54:14;5.50;;;3.88;;
78290;SDS011;67543;45.494;9.100;2023-06-10T17:56:40;5.03;;;4.53;;
78290;SDS011;67543;45.494;9.100;2023-06-10T17:59:05;6.10;;;4.32;;
78290;SDS011;67543;45.494;9.100;2023-06-10T18:01:30;5.47;;;3.95;;
78290;SDS011;67543;45.494;9.100;2023-06-10T18:03:59;5.10;;;4.28;;
78290;SDS011;67543;45.494;9.100;2023-06-10T18:06:25;5.80;;;3.33;;
78290;SDS011;67543;45.494;9.100;2023-06-10T18:08:54;6.32;;;4.35;;
78290;SDS011;67543;45.494;9.100;2023-06-10T18:11:19;6.22;;;4.50;;
78290;SDS011;67543;45.494;9.100;2023-06-10T18:13:47;5.32;;;4.00;;
78290;SDS011;67543;45.494;9.100;2023-06-10T18:16:14;4.25;;;3.50;;
78290;SDS011;67543;45.494;9.100;2023-06-10T18:18:40;8.02;;;4.82;;
78290;SDS011;67543;45.494;9.100;2023-06-10T18:21:07;5.75;;;4.13;;
78290;SDS011;67543;45.494;9.100;2023-06-10T18:23:33;7.22;;;4.28;;
78290;SDS011;67543;45.494;9.100;2023-06-10T18:25:58;5.38;;;4.25;;
78290;SDS011;67543;45.494;9.100;2023-06-10T18:28:24;4.82;;;4.07;;
78290;SDS011;67543;45.494;9.100;2023-06-10T18:30:54;12.43;;;10.68;;
78290;SDS011;67543;45.494;9.100;2023-06-10T18:33:23;13.82;;;11.07;;
78290;SDS011;67543;45.494;9.100;2023-06-10T18:35:50;11.65;;;7.15;;
78290;SDS011;67543;45.494;9.100;2023-06-10T18:38:15;5.28;;;4.38;;
78290;SDS011;67543;45.494;9.100;2023-06-10T18:40:40;5.72;;;3.75;;
78290;SDS011;67543;45.494;9.100;2023-06-10T18:43:06;6.35;;;4.80;;
78290;SDS011;67543;45.494;9.100;2023-06-10T18:45:31;5.35;;;3.60;;
78290;SDS011;67543;45.494;9.100;2023-06-10T18:47:57;7.53;;;3.75;;
78290;SDS011;67543;45.494;9.100;2023-06-10T18:50:22;4.78;;;4.00;;
78290;SDS011;67543;45.494;9.100;2023-06-10T18:52:47;8.23;;;4.00;;
78290;SDS011;67543;45.494;9.100;2023-06-10T18:55:13;6.95;;;3.70;;
78290;SDS011;67543;45.494;9.100;2023-06-10T18:57:38;5.70;;;3.70;;
78290;SDS011;67543;45.494;9.100;2023-06-10T19:00:04;9.00;;;4.70;;
78290;SDS011;67543;45.494;9.100;2023-06-10T19:02:30;5.40;;;4.43;;
78290;SDS011;67543;45.494;9.100;2023-06-10T19:04:55;7.50;;;4.25;;
78290;SDS011;67543;45.494;9.100;2023-06-10T19:07:21;11.50;;;6.20;;
78290;SDS011;67543;45.494;9.100;2023-06-10T19:09:46;7.05;;;4.72;;
78290;SDS011;67543;45.494;9.100;2023-06-10T19:12:12;5.90;;;3.75;;
78290;SDS011;67543;45.494;9.100;2023-06-10T19:14:37;7.28;;;5.50;;
78290;SDS011;67543;45.494;9.100;2023-06-10T19:17:03;35.78;;;20.83;;
78290;SDS011;67543;45.494;9.100;2023-06-10T19:19:28;25.10;;;16.02;;
78290;SDS011;67543;45.494;9.100;2023-06-10T19:21:53;14.45;;;9.65;;
78290;SDS011;67543;45.494;9.100;2023-06-10T19:24:19;9.23;;;6.38;;
78290;SDS011;67543;45.494;9.100;2023-06-10T19:26:44;7.68;;;4.50;;
78290;SDS011;67543;45.494;9.100;2023-06-10T19:29:09;7.82;;;4.75;;
78290;SDS011;67543;45.494;9.100;2023-06-10T19:31:35;5.85;;;4.55;;
78290;SDS011;67543;45.494;9.100;2023-06-10T19:34:00;5.35;;;4.68;;
78290;SDS011;67543;45.494;9.100;2023-06-10T19:36:26;7.22;;;5.05;;
78290;SDS011;67543;45.494;9.100;2023-06-10T19:38:51;7.00;;;4.70;;
78290;SDS011;67543;45.494;9.100;2023-06-10T19:41:16;6.00;;;4.68;;
78290;SDS011;67543;45.494;9.100;2023-06-10T19:43:42;7.15;;;4.97;;
78290;SDS011;67543;45.494;9.100;2023-06-10T19:46:08;4.70;;;4.25;;
78290;SDS011;67543;45.494;9.100;2023-06-10T19:48:36;10.80;;;4.82;;
78290;SDS011;67543;45.494;9.100;2023-06-10T19:51:02;7.47;;;4.70;;
78290;SDS011;67543;45.494;9.100;2023-06-10T19:53:30;6.35;;;5.60;;
78290;SDS011;67543;45.494;9.100;2023-06-10T19:55:55;8.18;;;5.78;;
78290;SDS011;67543;45.494;9.100;2023-06-10T19:58:24;7.82;;;5.95;;
78290;SDS011;67543;45.494;9.100;2023-06-10T20:00:49;10.40;;;6.28;;
78290;SDS011;67543;45.494;9.100;2023-06-10T20:03:17;8.65;;;5.97;;
78290;SDS011;67543;45.494;9.100;2023-06-10T20:05:42;8.90;;;6.10;;
78290;SDS011;67543;45.494;9.100;2023-06-10T20:08:10;12.10;;;6.43;;
78290;SDS011;67543;45.494;9.100;2023-06-10T20:10:42;9.05;;;6.65;;
78290;SDS011;67543;45.494;9.100;2023-06-10T20:15:44;9.85;;;6.93;;
78290;SDS011;67543;45.494;9.100;2023-06-10T20:18:13;10.38;;;6.97;;
78290;SDS011;67543;45.494;9.100;2023-06-10T20:20:43;9.45;;;6.53;;
78290;SDS011;67543;45.494;9.100;2023-06-10T20:23:11;8.85;;;6.70;;
78290;SDS011;67543;45.494;9.100;2023-06-10T20:25:39;8.30;;;6.60;;
78290;SDS011;67543;45.494;9.100;2023-06-10T20:28:08;10.00;;;6.53;;
78290;SDS011;67543;45.494;9.100;2023-06-10T20:30:33;11.70;;;6.78;;
78290;SDS011;67543;45.494;9.100;2023-06-10T20:33:07;7.32;;;6.07;;
78290;SDS011;67543;45.494;9.100;2023-06-10T20:35:32;8.90;;;6.32;;
78290;SDS011;67543;45.494;9.100;2023-06-10T20:37:58;7.10;;;6.13;;
78290;SDS011;67543;45.494;9.100;2023-06-10T20:40:26;11.45;;;6.32;;
78290;SDS011;67543;45.494;9.100;2023-06-10T20:42:55;8.88;;;6.72;;
78290;SDS011;67543;45.494;9.100;2023-06-10T20:45:26;14.30;;;5.57;;
78290;SDS011;67543;45.494;9.100;2023-06-10T20:50:19;9.70;;;5.55;;
78290;SDS011;67543;45.494;9.100;2023-06-10T20:52:53;10.00;;;6.25;;
78290;SDS011;67543;45.494;9.100;2023-06-10T20:55:21;8.00;;;6.40;;
78290;SDS011;67543;45.494;9.100;2023-06-10T20:57:54;9.38;;;6.65;;
78290;SDS011;67543;45.494;9.100;2023-06-10T21:00:23;21.42;;;17.70;;
